Destin, FL

12:23 AM CST on November 26, 2014 (GMT -0600)
Destin-Fort Walton Beach | Change Station
CLOSE
Current Station
Airport
Location: Destin,
Elevation: 23 ft
Nearby Weather Stations

Elev 23 ft 30.39 °N, 86.47 °W | Updated 30 minutes ago

Overcast
Overcast
51 °F
Feels Like 51 °F
N
12
Wind Variable Wind from NW

Today
High -- | Low -- °F
--% Chance of Precip.
Yesterday
High -- | Low -- °F
Precip. -- in
6:20 AM 4:45 PM
Waxing Crescent, 17% visible
Pressure 30.06 in
Visibility 10.0 miles
Clouds Scattered Clouds 11000 ft
Dew Point 43 °F
Humidity 74%
Rainfall 0.16 in
Snow Depth Not available.
UV 0 out of 12
Pollen 1.80 out of 12
Air Quality Not available.
Flu Activity Not available.
METAR KDTS 260553Z AUTO 32010KT 10SM SCT110 11/06 A3006 RMK AO2 SLP177 60005 T01060061 10111 20106 401720106 58015 TSNO

More Conditions Fewer Conditions

Pressure 30.06 in
Visibility 10.0 miles
Clouds Scattered Clouds 11000 ft
Dew Point 43 °F
Humidity 74%
Rainfall 0.16 in
Snow Depth Not available.
UV 0 out of 12
Pollen 1.80 out of 12
Air Quality Not available.
Flu Activity Not available.
METAR KDTS 260553Z AUTO 32010KT 10SM SCT110 11/06 A3006 RMK AO2 SLP177 60005 T01060061 10111 20106 401720106 58015 TSNO

More Conditions Fewer Conditions

10-Day Weather Forecast

Almanac

Astronomy

Nov. 26, 2014 Rise Set
Actual Time
Civil Twilight
Nautical Twilight
Astronomical Twilight
Moon
Length of Visible Light
Length of Day
Tomorrow will be .
, % of the Moon is Illuminated

Today's Extremes

State Highs State Lows

Community

WunderPhotos

Upload Photos

1,773,689 photos uploaded!

WunderBlogs® & News

Nearby

Air Quality

  Air Quality AQ Index Pollutant
Not available.

Snow Depth

Station Depth Elevation

Earthquake Activity

City Distance Mag. Time & Date
Minimum magnitude displayed is 2.5.

Coastal Water Temperatures

Place Temperature

Nearby Weather Stations